Řízení letového provozu České republiky
Letiste: LKLN Aktualizace: 23.08.2017 07:06:03  UTC
 METAR LKLN 23.08. 07:00 ...
METAR LKLN 230700Z AUTO VRB02KT CAVOK 11/08 Q1021=